Latest Weather Observations for Fingal

IDT60801

Issued at 11:02 pm EDT Wednesday 28 January 2015 (issued every 30 minutes, with the page automatically refreshed every 10 minutes)

About weather observations | Map of weather stations | Latest weather observations for TAS | Other Formats
Station Details ID: 092012 Name: FINGAL (LEGGE STREET) Lat: -41.64 Lon: 147.97 Height: 237.0 m
Data from the previous 72 hours. | See also: Recent months at Fingal
Date/Time
EDT
Temp
°C
App
Temp
°C
Dew
Point
Rel
Hum
%
Delta-T
°C
Wind Press
QNH
hPa
Press
MSL
hPa
Rain
since 9 am
mm
Dir
 
Spd
km/h
Gust
km/h
Spd
kts
Gust
kts
28/11:00pm 11.1 7.8 6.6 74 2.2 SSW 13 20 7 11 - - 0.4
28/10:30pm 11.0 7.8 6.9 76 2.0 SW 13 22 7 12 - - 0.4
28/10:00pm 10.4 8.0 7.1 80 1.6 SW 9 13 5 7 - - 0.4
28/09:30pm 10.8 7.9 6.7 76 2.0 SSW 11 17 6 9 - - 0.2
28/09:00pm 11.0 7.7 6.6 74 2.1 S 13 20 7 11 - - 0.2
28/08:30pm 11.9 9.4 6.6 70 2.5 SW 9 22 5 12 - - 0.2
28/08:00pm 12.2 9.3 6.3 67 2.8 S 11 19 6 10 - - 0.2
28/07:30pm 12.6 9.2 6.0 64 3.2 W 13 19 7 10 - - 0.2
28/07:00pm 12.5 8.2 5.2 61 3.4 SSW 17 32 9 17 - - 0.2
28/06:30pm 13.4 9.4 4.8 56 4.0 SSW 15 28 8 15 - - 0.2
28/06:00pm 13.6 9.3 5.3 57 3.9 SSW 17 33 9 18 - - 0.2
28/05:30pm 14.0 9.0 4.6 53 4.4 SSW 20 35 11 19 - - 0.2
28/05:00pm 14.5 10.1 4.5 51 4.7 S 17 48 9 26 - - 0.2
28/04:30pm 15.0 11.3 4.4 49 5.0 S 13 30 7 16 - - 0.2
28/04:00pm 15.0 10.5 4.1 48 5.1 SSW 17 32 9 17 - - 0.2
28/03:30pm 16.1 10.8 5.1 48 5.3 SSE 22 39 12 21 - - 0.2
28/03:00pm 15.9 10.3 5.2 49 5.1 S 24 44 13 24 - - 0.2
28/02:30pm 15.9 8.7 5.2 49 5.1 SE 32 52 17 28 - - 0.2
28/02:12pm 16.8 10.6 6.0 49 5.3 SSE 28 48 15 26 - - 0.2
28/02:00pm 16.0 10.4 5.6 50 5.0 SSE 24 46 13 25 - - 0.2
28/01:30pm 14.8 9.2 5.3 53 4.5 S 24 43 13 23 - - 0.2
28/01:00pm 15.4 8.9 6.7 56 4.3 SSE 30 46 16 25 - - 0.0
28/12:30pm 14.8 10.3 6.9 59 3.9 SSE 20 35 11 19 - - 0.0
28/12:00pm 12.8 8.1 7.7 71 2.5 SSE 22 39 12 21 - - 0.0
28/11:30am 15.0 10.0 6.3 56 4.3 SSE 22 37 12 20 - - 0.0
28/11:00am 13.8 8.7 7.6 66 3.1 S 24 43 13 23 - - 0.0
28/10:30am 13.2 9.2 8.1 71 2.6 S 19 32 10 17 - - 0.0
28/10:00am 14.5 11.8 7.3 62 3.6 NNW 11 19 6 10 - - 0.0
28/09:30am 12.5 10.3 6.1 65 3.1 SW 7 15 4 8 - - 0.0
28/09:00am 12.1 8.2 5.5 64 3.1 WNW 15 22 8 12 - - 0.0
28/08:30am 11.7 8.2 5.6 66 2.9 WNW 13 22 7 12 - - 0.0
28/08:00am 11.1 7.9 5.2 67 2.7 W 11 19 6 10 - - 0.0
28/07:30am 8.9 6.6 5.8 81 1.4 W 7 13 4 7 - - 0.0
28/07:00am 7.3 4.8 4.8 84 1.1 WSW 7 11 4 6 - - 0.0
28/06:30am 7.7 4.8 4.7 81 1.3 WSW 9 17 5 9 - - 0.0
28/05:30am 9.0 6.1 4.6 74 2.0 SW 9 17 5 9 - - 0.0
28/05:00am 8.8 7.0 5.2 78 1.6 SW 4 11 2 6 - - 0.0
28/04:30am 10.4 7.6 5.2 70 2.4 SW 9 20 5 11 - - 0.0
28/04:00am 10.3 7.5 5.1 70 2.4 W 9 20 5 11 - - 0.0
28/03:30am 10.8 8.0 5.1 68 2.6 NW 9 24 5 13 - - 0.0
28/03:00am 11.1 8.3 5.2 67 2.7 SW 9 15 5 8 - - 0.0
28/02:30am 11.5 7.7 6.0 69 2.6 S 15 26 8 14 - - 0.0
28/02:00am 11.6 8.7 6.5 71 2.4 SSW 11 26 6 14 - - 0.0
28/01:30am 11.9 9.6 7.4 74 2.2 SW 9 24 5 13 - - 0.0
28/01:00am 12.1 10.2 7.4 73 2.3 S 7 13 4 7 - - 0.0
28/12:30am 11.8 10.3 8.3 79 1.7 SSW 6 9 3 5 - - 0.0
28/12:00am 12.2 10.3 7.7 74 2.2 SW 7 11 4 6 - - 0.0
 
Date/Time
EDT
Temp
°C
App
Temp
°C
Dew
Point
Rel
Hum
%
Delta-T
°C
Wind Press
QNH
hPa
Press
MSL
hPa
Rain
since 9 am
mm
Dir
 
Spd
km/h
Gust
km/h
Spd
kts
Gust
kts
27/11:30pm 12.3 11.3 7.4 72 2.4 S 2 6 1 3 - - 0.0
27/11:00pm 12.7 11.0 7.4 70 2.6 S 6 11 3 6 - - 0.0
27/10:30pm 12.8 10.9 7.5 70 2.6 WNW 7 11 4 6 - - 0.0
27/10:00pm 12.7 10.7 7.2 69 2.7 SE 7 13 4 7 - - 0.0
27/09:30pm 13.0 10.0 7.7 70 2.6 SE 13 22 7 12 - - 0.0
27/09:00pm 13.2 10.6 7.9 70 2.6 ESE 11 19 6 10 - - 0.0
27/08:30pm 13.3 11.5 8.0 70 2.7 E 7 11 4 6 - - 0.0
27/08:00pm 13.4 12.1 9.8 79 1.9 NNW 7 11 4 6 - - 0.0
27/07:30pm 13.8 11.7 8.4 70 2.7 ENE 9 15 5 8 - - 0.0
27/07:00pm 13.8 11.8 8.6 71 2.6 E 9 15 5 8 - - 0.0
27/06:30pm 14.1 12.1 8.7 70 2.8 ESE 9 15 5 8 - - 0.0
27/06:00pm 14.6 13.0 8.8 68 3.0 E 7 13 4 7 - - 0.0
27/05:30pm 14.8 12.2 9.4 70 2.8 SE 13 20 7 11 - - 0.0
27/05:00pm 14.6 12.2 10.2 75 2.3 SE 13 20 7 11 - - 0.0
27/04:30pm 15.0 12.2 10.0 72 2.6 SE 15 26 8 14 - - 0.0
27/04:00pm 16.1 14.4 9.8 66 3.3 ESE 9 20 5 11 - - 0.0
27/03:30pm 17.5 14.8 7.3 51 5.2 ESE 11 15 6 8 - - 0.0
27/03:00pm 16.8 14.1 7.2 53 4.8 SE 11 19 6 10 - - 0.0
27/02:30pm 17.1 14.3 6.9 51 5.1 E 11 24 6 13 - - 0.0
27/02:00pm 17.7 14.8 6.6 48 5.6 ENE 11 19 6 10 - - 0.0
27/01:30pm 19.6 16.1 7.4 45 6.3 SE 15 24 8 13 - - 0.0
27/01:00pm 18.7 16.1 4.1 38 7.0 NNW 7 13 4 7 - - 0.0
27/12:30pm 18.4 15.7 3.5 37 7.1 NNW 7 9 4 5 - - 0.0
27/12:00pm 17.8 15.0 5.1 43 6.2 NNE 9 13 5 7 - - 0.0
27/11:30am 18.9 16.3 6.1 43 6.4 ENE 9 17 5 9 - - 0.0
27/11:00am 18.1 15.5 6.0 45 6.0 SE 9 19 5 10 - - 0.0
27/10:30am 16.6 13.4 5.3 47 5.5 NNE 11 20 6 11 - - 0.0
27/10:00am 16.4 13.8 6.0 50 5.1 NE 9 19 5 10 - - 0.0
27/09:30am 15.7 13.3 7.2 57 4.3 NE 9 17 5 9 - - 0.0
27/09:00am 14.6 13.1 9.0 69 2.9 NE 7 11 4 6 - - 0.0
27/08:30am 11.7 10.2 9.1 84 1.3 NNE 7 9 4 5 - - 0.0
27/08:00am 9.8 8.3 8.4 91 0.7 NE 6 7 3 4 - - 0.0
27/07:30am 8.0 6.9 6.8 92 0.6 SE 2 7 1 4 - - 0.0
27/07:00am 6.4 4.1 5.0 91 0.6 SE 6 6 3 3 - - 0.0
27/06:30am 5.8 3.2 4.4 91 0.6 SE 7 9 4 5 - - 0.0
27/06:00am 6.3 4.4 4.8 90 0.7 ENE 4 7 2 4 - - 0.0
27/05:30am 7.2 5.8 5.5 89 0.8 E 2 7 1 4 - - 0.0
27/05:00am 7.9 6.3 6.2 89 0.8 E 4 7 2 4 - - 0.0
27/04:30am 7.8 6.5 5.9 88 0.9 E 2 6 1 3 - - 0.0
27/04:00am 8.3 6.3 6.4 88 0.9 SE 6 7 3 4 - - 0.0
27/03:30am 8.5 6.3 6.3 86 1.0 SE 7 9 4 5 - - 0.0
27/03:00am 9.4 7.6 7.0 85 1.1 ENE 6 9 3 5 - - 0.0
27/02:30am 9.5 7.7 7.1 85 1.1 ESE 6 7 3 4 - - 0.0
27/02:00am 9.9 8.1 7.3 84 1.3 SE 6 7 3 4 - - 0.0
27/01:30am 10.4 9.1 7.6 83 1.4 E 4 7 2 4 - - 0.0
27/01:00am 11.5 11.1 8.4 81 1.5 CALM 0 4 0 2 - - 0.0
27/12:30am 12.6 11.2 8.7 77 2.0 NNW 6 6 3 3 - - 0.0
27/12:00am 13.5 11.9 8.8 73 2.4 ENE 7 11 4 6 - - 0.0
 
Date/Time
EDT
Temp
°C
App
Temp
°C
Dew
Point
Rel
Hum
%
Delta-T
°C
Wind Press
QNH
hPa
Press
MSL
hPa
Rain
since 9 am
mm
Dir
 
Spd
km/h
Gust
km/h
Spd
kts
Gust
kts
26/11:30pm 13.6 12.0 8.9 73 2.4 E 7 13 4 7 - - 0.0
26/11:00pm 14.0 11.9 8.4 69 2.8 NE 9 17 5 9 - - 0.0
26/10:30pm 14.0 11.5 8.2 68 2.9 ENE 11 19 6 10 - - 0.0
26/10:00pm 13.9 11.7 7.9 67 3.0 NE 9 17 5 9 - - 0.0
26/09:30pm 14.0 11.8 7.8 66 3.1 E 9 19 5 10 - - 0.0
26/09:00pm 14.0 11.8 7.8 66 3.1 E 9 20 5 11 - - 0.0
26/08:30pm 14.1 11.1 7.6 65 3.2 E 13 24 7 13 - - 0.0
26/08:00pm 14.6 11.5 7.2 61 3.7 E 13 22 7 12 - - 0.0
26/07:30pm 14.6 11.0 6.9 60 3.8 ENE 15 24 8 13 - - 0.0
26/07:00pm 15.9 12.6 6.6 54 4.6 ENE 13 33 7 18 - - 0.0
26/06:30pm 15.8 12.1 6.3 53 4.7 ENE 15 26 8 14 - - 0.0
26/06:00pm 16.6 12.1 4.3 44 5.8 NE 17 28 9 15 - - 0.0
26/05:30pm 17.9 12.9 3.4 38 6.8 NE 19 28 10 15 - - 0.0
26/05:00pm 18.2 13.7 4.0 39 6.8 NE 17 28 9 15 - - 0.0
26/04:30pm 17.7 12.8 4.3 41 6.4 NE 19 28 10 15 - - 0.0
26/04:00pm 18.6 14.0 3.6 37 7.1 NE 17 32 9 17 - - 0.0
26/03:30pm 18.5 13.9 3.9 38 7.0 NNE 17 26 9 14 - - 0.0
26/03:00pm 20.8 16.1 0.6 26 9.2 W 15 28 8 15 - - 0.0
26/02:30pm 19.2 14.3 -0.2 27 8.6 SW 15 24 8 13 - - 0.0
26/02:00pm 18.8 13.6 -0.1 28 8.3 S 17 26 9 14 - - 0.0
26/01:30pm 19.0 14.8 1.5 31 8.0 SW 13 24 7 13 - - 0.0
26/01:00pm 17.7 12.4 -0.5 29 7.9 SW 17 30 9 16 - - 0.0
26/12:30pm 17.2 12.4 0.4 32 7.4 SW 15 26 8 14 - - 0.0
26/12:00pm 16.9 12.7 1.8 36 6.8 SSW 13 24 7 13 - - 0.0
26/11:30am 16.3 11.9 0.4 34 6.9 W 13 20 7 11 - - 0.0
26/11:00am 15.7 11.4 1.1 37 6.4 SW 13 24 7 13 - - 0.0
26/10:30am 15.5 12.0 1.3 38 6.3 WSW 9 24 5 13 - - 0.0
26/10:00am 14.2 10.8 2.1 44 5.4 NW 9 13 5 7 - - 0.0
26/09:30am 13.6 10.4 3.1 49 4.7 NW 9 13 5 7 - - 0.0
26/09:00am 11.5 8.8 3.5 58 3.6 NNE 7 9 4 5 - - 0.2
26/08:30am 9.1 6.4 3.7 69 2.4 NNE 7 9 4 5 - - 0.2
26/08:00am 6.9 3.9 4.0 82 1.3 ESE 9 13 5 7 - - 0.2
26/07:30am 4.4 2.1 2.8 89 0.7 E 4 9 2 5 - - 0.2
26/07:00am 2.5 -0.7 1.0 90 0.6 SE 7 11 4 6 - - 0.2
26/06:30am 1.7 -0.3 -0.1 88 0.7 CALM 0 6 0 3 - - 0.2
26/06:00am 1.5 -1.3 -0.4 87 0.7 SSE 4 7 2 4 - - 0.2
26/05:30am 2.0 -0.7 0.1 87 0.7 SSE 4 11 2 6 - - 0.2
26/05:00am 2.6 0.3 0.5 86 0.8 SSW 2 6 1 3 - - 0.2
26/04:30am 3.0 0.0 0.7 85 0.9 SSE 6 9 3 5 - - 0.2
26/04:00am 3.1 -0.1 0.7 84 0.9 NNE 7 9 4 5 - - 0.2
26/03:30am 3.5 -0.1 0.7 82 1.1 SSE 9 13 5 7 - - 0.2
26/03:00am 4.2 1.6 1.1 80 1.2 SE 4 7 2 4 - - 0.2
26/02:30am 3.9 0.8 0.4 78 1.3 ESE 6 11 3 6 - - 0.2
26/02:00am 5.0 2.5 1.3 77 1.5 ESE 4 9 2 5 - - 0.2
26/01:30am 5.6 3.5 1.5 75 1.7 E 2 6 1 3 - - 0.2
26/01:00am 6.4 4.6 1.3 70 2.1 CALM 0 6 0 3 - - 0.2
26/12:30am 7.4 4.3 1.5 66 2.4 N 7 9 4 5 - - 0.2
26/12:00am 8.6 6.5 1.5 61 3.0 NNE 2 9 1 5 - - 0.2
 
Date/Time
EDT
Temp
°C
App
Temp
°C
Dew
Point
Rel
Hum
%
Delta-T
°C
Wind Press
QNH
hPa
Press
MSL
hPa
Rain
since 9 am
mm
Dir
 
Spd
km/h
Gust
km/h
Spd
kts
Gust
kts
25/11:30pm 9.9 6.8 1.5 56 3.5 SW 7 20 4 11 - - 0.2

Other Formats:

Comma delimited format used in spreadsheet applications
http://www.bom.gov.au/fwo/IDT60801/IDT60801.95974.axf

JavaScript Object Notation format (JSON) in row-major order
http://www.bom.gov.au/fwo/IDT60801/IDT60801.95974.json